createdAt,value
2017-07-11T16:35:30.730Z,98670.91
2017-07-11T16:37:56.453Z,98664.79
2017-07-11T16:40:22.638Z,98669.33
2017-07-11T16:42:48.369Z,98664.84
2017-07-11T16:45:14.227Z,98660.34
2017-07-11T16:47:39.957Z,98669.52
2017-07-11T16:50:05.673Z,98665.58
2017-07-11T16:52:31.440Z,98667.30
2017-07-11T16:54:57.189Z,98664.48
2017-07-11T16:57:22.944Z,98665.44
2017-07-11T16:59:48.713Z,98661.11
2017-07-11T17:02:14.530Z,98658.30
2017-07-11T17:04:40.272Z,98649.58
2017-07-11T17:07:06.042Z,98640.02
2017-07-11T17:09:31.796Z,98642.73
2017-07-11T17:11:57.545Z,98635.59
2017-07-11T17:14:23.321Z,98638.50
2017-07-11T17:16:49.046Z,98631.64
2017-07-11T17:19:14.807Z,98629.41
2017-07-11T17:21:40.528Z,98629.92
2017-07-11T17:24:06.287Z,98628.64
2017-07-11T17:26:32.039Z,98633.56
2017-07-11T17:28:57.876Z,98626.57
2017-07-11T17:31:23.668Z,98626.10
2017-07-11T17:33:49.392Z,98624.64
2017-07-11T17:36:15.158Z,98617.91
2017-07-11T17:38:40.916Z,98624.34
2017-07-11T17:41:06.739Z,98621.92
2017-07-11T17:43:32.519Z,98618.05
2017-07-11T17:45:58.295Z,98619.86
2017-07-11T17:48:24.050Z,98622.33
2017-07-11T17:50:49.860Z,98618.63
2017-07-11T17:53:15.613Z,98622.41
2017-07-11T17:55:41.345Z,98614.87
2017-07-11T17:58:07.362Z,98621.07
2017-07-11T18:00:33.306Z,98621.63
2017-07-11T18:02:59.066Z,98624.94
2017-07-11T18:05:24.843Z,98626.98
2017-07-11T18:07:50.631Z,98631.98
2017-07-11T18:10:16.426Z,98642.27
2017-07-11T18:12:42.170Z,98633.56
2017-07-11T18:15:07.953Z,98630.50
2017-07-11T18:17:33.679Z,98633.73
2017-07-11T18:19:59.470Z,98629.28
2017-07-11T18:22:25.284Z,98630.19
2017-07-11T18:24:51.227Z,98631.58
2017-07-11T18:27:17.036Z,98633.75
2017-07-11T18:29:42.788Z,98634.88
2017-07-11T18:32:08.638Z,98627.09
2017-07-11T18:34:34.984Z,98630.16
2017-07-11T18:37:00.762Z,98634.49
2017-07-11T18:39:26.530Z,98632.86
2017-07-11T18:41:52.299Z,98628.47
2017-07-11T18:44:18.038Z,98630.30
2017-07-11T18:46:43.875Z,98628.55
2017-07-11T18:49:10.564Z,98624.48
2017-07-11T18:51:36.390Z,98629.98
2017-07-11T18:54:02.196Z,98632.22
2017-07-11T18:56:28.092Z,98638.16
2017-07-11T18:58:53.885Z,98630.59
2017-07-11T19:01:19.644Z,98633.50
2017-07-11T19:03:45.419Z,98634.64
2017-07-11T19:06:11.156Z,98639.91
2017-07-11T19:08:37.572Z,98642.23
2017-07-11T19:11:03.341Z,98641.73
2017-07-11T19:13:29.081Z,98651.20
2017-07-11T19:15:54.835Z,98650.20
2017-07-11T19:18:20.558Z,98652.67
2017-07-11T19:20:46.308Z,98656.59
2017-07-11T19:23:12.023Z,98660.15
2017-07-11T19:25:37.794Z,98658.38
2017-07-11T19:28:03.550Z,98672.17
2017-07-11T19:30:29.304Z,98674.31
2017-07-11T19:32:55.066Z,98672.63
2017-07-11T19:35:20.795Z,98677.17
2017-07-11T19:37:46.565Z,98685.19
2017-07-11T19:40:12.323Z,98681.89
2017-07-11T19:42:38.089Z,98686.19
2017-07-11T19:45:05.899Z,98686.94
2017-07-11T19:47:31.721Z,98687.34
2017-07-11T19:49:57.521Z,98693.66
2017-07-11T19:52:23.277Z,98694.66
2017-07-11T19:54:49.179Z,98698.06
2017-07-11T19:57:14.921Z,98697.75
2017-07-11T19:59:40.675Z,98692.87
2017-07-11T20:02:06.510Z,98697.45
2017-07-11T20:04:32.293Z,98692.34
2017-07-11T20:06:58.062Z,98685.58
2017-07-11T20:09:23.821Z,98689.50
2017-07-11T20:11:49.637Z,98691.94
2017-07-11T20:14:15.358Z,98689.89
2017-07-11T20:16:41.099Z,98691.95
2017-07-11T20:19:07.458Z,98689.96
2017-07-11T20:21:33.241Z,98688.48
2017-07-11T20:23:59.095Z,98683.98
2017-07-11T20:26:24.898Z,98683.34
2017-07-11T20:28:50.673Z,98685.81
2017-07-11T20:31:16.456Z,98682.40
2017-07-11T20:33:42.205Z,98684.22
2017-07-11T20:36:07.935Z,98682.25
2017-07-11T20:38:33.729Z,98682.69
2017-07-11T20:40:59.461Z,98684.29
2017-07-11T20:43:25.235Z,98684.52
2017-07-11T20:45:50.974Z,98684.20
2017-07-11T20:48:16.722Z,98682.37
2017-07-11T20:50:42.493Z,98685.34
2017-07-11T20:53:08.271Z,98688.98
2017-07-11T20:55:34.054Z,98679.00
2017-07-11T20:57:59.808Z,98681.53
2017-07-11T21:00:25.546Z,98677.72
2017-07-11T21:02:51.295Z,98678.94
2017-07-11T21:05:17.090Z,98682.90
2017-07-11T21:07:42.865Z,98682.64
2017-07-11T21:10:08.673Z,98682.90
2017-07-11T21:12:34.476Z,98685.31
2017-07-11T21:15:00.236Z,98685.14
2017-07-11T21:17:25.976Z,98693.35
2017-07-11T21:19:51.751Z,98690.12
2017-07-11T21:22:17.484Z,98689.83
2017-07-11T21:24:43.244Z,98684.85
2017-07-11T21:27:08.974Z,98686.31
2017-07-11T21:29:34.757Z,98684.15
2017-07-11T21:32:00.484Z,98689.08
2017-07-11T21:34:26.280Z,98681.77
2017-07-11T21:36:52.057Z,98672.02
2017-07-11T21:39:17.795Z,98679.73
2017-07-11T21:41:43.618Z,98687.21
2017-07-11T21:44:09.364Z,98682.70
2017-07-11T21:46:35.128Z,98682.78
2017-07-11T21:49:00.867Z,98682.55
2017-07-11T21:51:26.653Z,98689.25
2017-07-11T21:53:52.397Z,98681.36
2017-07-11T21:56:18.179Z,98679.64
2017-07-11T21:58:43.923Z,98681.41
2017-07-11T22:01:09.703Z,98677.28
2017-07-11T22:03:35.530Z,98676.32
2017-07-11T22:06:01.460Z,98681.19
2017-07-11T22:08:27.244Z,98686.89
2017-07-11T22:10:53.014Z,98684.88
2017-07-11T22:13:18.850Z,98686.98
2017-07-11T22:15:44.595Z,98688.81
2017-07-11T22:18:11.605Z,98691.95
2017-07-11T22:20:37.351Z,98684.85
2017-07-11T22:23:03.151Z,98683.27
2017-07-11T22:25:28.904Z,98685.70
2017-07-11T22:27:54.693Z,98685.00
2017-07-11T22:30:21.055Z,98673.00
2017-07-11T22:32:46.861Z,98676.79
2017-07-11T22:35:12.622Z,98673.09
2017-07-11T22:37:38.381Z,98674.78
2017-07-11T22:40:04.565Z,98675.19
2017-07-11T22:42:30.320Z,98676.84
2017-07-11T22:44:56.068Z,98677.34
2017-07-11T22:47:21.820Z,98669.80
2017-07-11T22:49:47.539Z,98668.43
2017-07-11T22:52:13.344Z,98658.36
2017-07-11T22:54:39.107Z,98657.95
2017-07-11T22:57:04.889Z,98656.91
2017-07-11T22:59:30.673Z,98652.22
2017-07-11T23:01:56.525Z,98644.88
2017-07-11T23:04:22.246Z,98643.92
2017-07-11T23:06:48.002Z,98640.23
2017-07-11T23:09:13.737Z,98639.50
2017-07-11T23:11:39.517Z,98630.67
2017-07-11T23:14:05.257Z,98635.72
2017-07-11T23:16:31.382Z,98632.89
2017-07-11T23:18:57.129Z,98632.11
2017-07-11T23:21:23.411Z,98628.30
2017-07-11T23:23:49.158Z,98630.48
2017-07-11T23:26:14.883Z,98620.98
2017-07-11T23:28:40.649Z,98628.37
2017-07-11T23:31:06.370Z,98629.75
2017-07-11T23:33:32.097Z,98623.08
2017-07-11T23:35:57.881Z,98627.19
2017-07-11T23:38:23.634Z,98626.69
2017-07-11T23:40:49.628Z,98626.05
2017-07-11T23:43:15.332Z,98618.14
2017-07-11T23:45:41.066Z,98624.52
2017-07-11T23:48:06.827Z,98617.20
2017-07-11T23:50:32.626Z,98613.91
2017-07-11T23:52:58.360Z,98613.19
2017-07-11T23:55:24.718Z,98613.09
2017-07-11T23:57:50.680Z,98615.60
